Time;durP1;ratioP1;P1;durP2;ratioP2;P2;SDS_P1;SDS_P2;PMS_P1;PMS_P2;Temp;Humidity;BMP_temperature;BMP_pressure;BME280_temperature;BME280_humidity;BME280_pressure;Samples;Min_cycle;Max_cycle;Signal;HPM_P1;HPM_P2
2021/10/08 00:02:12;;;;;;;9.57;8.57;;;;;;;;;;5033536;28;20248;-56
2021/10/08 00:04:40;;;;;;;10.02;8.95;;;;;;;;;;5035140;28;20598;-56
2021/10/08 00:07:07;;;;;;;10.95;9.15;;;;;;;;;;5033867;28;20601;-56
2021/10/08 00:09:35;;;;;;;10.98;8.23;;;;;;;;;;5033559;28;20568;-57
2021/10/08 00:12:02;;;;;;;11.18;8.98;;;;;;;;;;5033766;28;20241;-56
2021/10/08 00:14:29;;;;;;;14.55;8.77;;;;;;;;;;5033479;28;20272;-56
2021/10/08 00:16:58;;;;;;;10.13;8.50;;;;;;;;;;5033106;28;20696;-56
2021/10/08 00:19:26;;;;;;;12.75;10.05;;;;;;;;;;5033367;28;20707;-56
2021/10/08 00:21:53;;;;;;;11.32;9.20;;;;;;;;;;5033595;28;20199;-56
2021/10/08 00:24:20;;;;;;;10.98;9.25;;;;;;;;;;5035865;28;20221;-56
2021/10/08 00:26:48;;;;;;;14.55;9.10;;;;;;;;;;5038221;28;20259;-56
2021/10/08 00:29:15;;;;;;;11.20;8.85;;;;;;;;;;5037554;28;20221;-56
2021/10/08 00:31:42;;;;;;;11.18;9.98;;;;;;;;;;5037175;28;20678;-56
2021/10/08 00:34:11;;;;;;;10.85;8.85;;;;;;;;;;5037467;28;20693;-56
2021/10/08 00:36:38;;;;;;;11.15;9.95;;;;;;;;;;5037281;28;20787;-57
2021/10/08 00:39:05;;;;;;;12.27;9.60;;;;;;;;;;5037037;28;20264;-56
2021/10/08 00:41:33;;;;;;;10.70;9.55;;;;;;;;;;5036878;28;20206;-56
2021/10/08 00:44:00;;;;;;;17.17;10.30;;;;;;;;;;5037151;28;20217;-56
2021/10/08 00:46:27;;;;;;;10.35;9.00;;;;;;;;;;5037014;28;20206;-56
2021/10/08 00:48:55;;;;;;;10.13;9.13;;;;;;;;;;5061130;22;20292;-61
2021/10/08 00:51:24;;;;;;;10.20;9.05;;;;;;;;;;5037426;28;20211;-61
2021/10/08 00:53:52;;;;;;;11.95;9.30;;;;;;;;;;5037175;28;20226;-61
2021/10/08 00:56:19;;;;;;;11.40;10.02;;;;;;;;;;5037306;28;20258;-60
2021/10/08 00:58:46;;;;;;;9.60;8.60;;;;;;;;;;5036785;28;20717;-61
2021/10/08 01:01:16;;;;;;;11.05;8.48;;;;;;;;;;5037102;28;20206;-60
2021/10/08 01:03:44;;;;;;;9.82;8.52;;;;;;;;;;5036761;28;20198;-60
2021/10/08 01:06:11;;;;;;;9.55;8.55;;;;;;;;;;5036513;28;20202;-60
2021/10/08 01:08:40;;;;;;;11.50;9.13;;;;;;;;;;5036595;28;20253;-60
2021/10/08 01:11:07;;;;;;;9.45;8.20;;;;;;;;;;5037655;28;20291;-61
2021/10/08 01:13:34;;;;;;;10.02;9.02;;;;;;;;;;5039480;28;20218;-61
2021/10/08 01:16:02;;;;;;;11.00;8.70;;;;;;;;;;5037243;28;20259;-61
2021/10/08 01:18:29;;;;;;;10.00;9.00;;;;;;;;;;5036780;28;20198;-61
2021/10/08 01:20:58;;;;;;;9.07;8.13;;;;;;;;;;5036688;28;20678;-61
2021/10/08 01:23:25;;;;;;;11.63;9.10;;;;;;;;;;5037368;28;20538;-61
2021/10/08 01:25:53;;;;;;;11.60;8.57;;;;;;;;;;5036521;28;20618;-61
2021/10/08 01:28:20;;;;;;;9.75;8.05;;;;;;;;;;5036385;28;20578;-61
2021/10/08 01:30:48;;;;;;;9.85;8.13;;;;;;;;;;5036937;28;20783;-60
2021/10/08 01:33:16;;;;;;;9.60;8.60;;;;;;;;;;5042084;28;20219;-61
2021/10/08 01:35:43;;;;;;;9.88;8.45;;;;;;;;;;5045799;28;20225;-61
2021/10/08 01:38:11;;;;;;;11.35;9.40;;;;;;;;;;5039234;28;20202;-61
2021/10/08 01:40:39;;;;;;;8.88;7.57;;;;;;;;;;5037675;28;20226;-61
2021/10/08 01:43:06;;;;;;;9.73;7.72;;;;;;;;;;5038140;28;20249;-61
2021/10/08 01:45:33;;;;;;;8.85;7.72;;;;;;;;;;5041254;28;20678;-60
2021/10/08 01:48:01;;;;;;;10.02;8.55;;;;;;;;;;5040527;28;20573;-61
2021/10/08 01:50:28;;;;;;;9.10;8.15;;;;;;;;;;5054503;28;20226;-61
2021/10/08 01:52:55;;;;;;;8.50;7.70;;;;;;;;;;5047501;28;20202;-61
2021/10/08 01:55:24;;;;;;;8.60;7.70;;;;;;;;;;5045504;28;20218;-61
2021/10/08 01:57:51;;;;;;;10.55;9.45;;;;;;;;;;5040229;28;20236;-60
2021/10/08 02:00:18;;;;;;;12.18;7.95;;;;;;;;;;5041479;28;20218;-62
2021/10/08 02:02:46;;;;;;;11.60;8.98;;;;;;;;;;5042212;28;20666;-61
2021/10/08 02:05:13;;;;;;;10.10;7.93;;;;;;;;;;5041574;28;20222;-61
2021/10/08 02:07:40;;;;;;;9.43;8.00;;;;;;;;;;5039780;28;20611;-61
2021/10/08 02:10:08;;;;;;;10.40;8.63;;;;;;;;;;5038431;28;20272;-61
2021/10/08 02:12:36;;;;;;;9.90;8.68;;;;;;;;;;5047799;28;20203;-61
2021/10/08 02:15:04;;;;;;;10.38;7.97;;;;;;;;;;5044778;28;20222;-62
2021/10/08 02:17:31;;;;;;;11.77;8.25;;;;;;;;;;5041706;28;20233;-61
2021/10/08 02:19:59;;;;;;;11.82;9.18;;;;;;;;;;5040625;28;20218;-59
2021/10/08 02:22:26;;;;;;;9.38;8.10;;;;;;;;;;5041260;28;20202;-60
2021/10/08 02:24:53;;;;;;;8.75;7.85;;;;;;;;;;5041265;28;20201;-61
2021/10/08 02:27:20;;;;;;;8.70;7.80;;;;;;;;;;5038690;28;20663;-61
2021/10/08 02:29:49;;;;;;;8.80;7.13;;;;;;;;;;5037416;28;20222;-61
2021/10/08 02:32:16;;;;;;;8.57;7.68;;;;;;;;;;5038075;28;20214;-60
2021/10/08 02:34:44;;;;;;;8.70;7.80;;;;;;;;;;5037059;28;20548;-60
2021/10/08 02:37:11;;;;;;;10.60;7.50;;;;;;;;;;5036341;28;20199;-61
2021/10/08 02:39:38;;;;;;;7.95;7.10;;;;;;;;;;5036651;28;20226;-61
2021/10/08 02:42:05;;;;;;;8.23;6.97;;;;;;;;;;5035644;28;20198;-61
2021/10/08 02:44:33;;;;;;;8.70;6.95;;;;;;;;;;5035776;28;20289;-61
2021/10/08 02:47:01;;;;;;;7.50;6.72;;;;;;;;;;5034461;28;20202;-60
2021/10/08 02:49:29;;;;;;;7.78;6.40;;;;;;;;;;5035005;28;20721;-60
2021/10/08 02:51:56;;;;;;;9.77;7.72;;;;;;;;;;5035050;28;20202;-60
2021/10/08 02:54:24;;;;;;;11.15;7.82;;;;;;;;;;5035339;28;20284;-61
2021/10/08 02:56:51;;;;;;;9.40;7.20;;;;;;;;;;5035008;28;20678;-60
2021/10/08 02:59:18;;;;;;;9.90;8.45;;;;;;;;;;5035843;28;20717;-62
2021/10/08 03:01:46;;;;;;;7.18;6.38;;;;;;;;;;5034727;28;20206;-61
2021/10/08 03:04:14;;;;;;;7.82;7.00;;;;;;;;;;5034639;28;20252;-61
2021/10/08 03:06:41;;;;;;;12.85;7.28;;;;;;;;;;5034423;28;20206;-60
2021/10/08 03:09:09;;;;;;;11.00;7.75;;;;;;;;;;5034285;28;20222;-60
2021/10/08 03:11:36;;;;;;;8.55;7.32;;;;;;;;;;5035058;28;20256;-61
2021/10/08 03:14:03;;;;;;;9.95;8.98;;;;;;;;;;5034500;28;20222;-60
2021/10/08 03:16:31;;;;;;;10.18;8.18;;;;;;;;;;5034134;28;20199;-60
2021/10/08 03:18:58;;;;;;;11.35;9.10;;;;;;;;;;5034550;28;20225;-60
2021/10/08 03:21:27;;;;;;;12.55;9.15;;;;;;;;;;5034512;28;20252;-61
2021/10/08 03:23:54;;;;;;;10.70;9.57;;;;;;;;;;5034235;28;20720;-61
2021/10/08 03:26:21;;;;;;;13.25;9.57;;;;;;;;;;5034686;28;20280;-61
2021/10/08 03:28:48;;;;;;;9.93;8.85;;;;;;;;;;5034532;28;20226;-60
2021/10/08 03:31:16;;;;;;;12.15;9.38;;;;;;;;;;5034564;28;20225;-60
2021/10/08 03:33:43;;;;;;;12.00;9.05;;;;;;;;;;5034336;28;20210;-61
2021/10/08 03:36:16;;;;;;;13.77;11.02;;;;;;;;;;5034267;28;20670;-60
2021/10/08 03:38:44;;;;;;;15.65;10.93;;;;;;;;;;5034084;28;20202;-61
2021/10/08 03:41:13;;;;;;;12.45;10.60;;;;;;;;;;5034335;28;20209;-61
2021/10/08 03:43:41;;;;;;;11.52;10.02;;;;;;;;;;5034160;28;20206;-61
2021/10/08 03:46:09;;;;;;;15.00;9.50;;;;;;;;;;5034126;28;20202;-61
2021/10/08 03:49:11;;;;;;;12.73;10.45;;;;;;;;;;5033560;28;20253;-61
2021/10/08 03:51:39;;;;;;;14.25;11.82;;;;;;;;;;5034025;28;20210;-61
2021/10/08 03:54:08;;;;;;;16.25;10.75;;;;;;;;;;5033686;28;20222;-61
2021/10/08 03:56:35;;;;;;;12.23;10.02;;;;;;;;;;5033929;28;20268;-61
2021/10/08 03:59:02;;;;;;;12.63;9.88;;;;;;;;;;5033594;28;20230;-61
2021/10/08 04:01:30;;;;;;;12.90;10.32;;;;;;;;;;5034654;28;20523;-61
2021/10/08 04:03:57;;;;;;;14.30;9.98;;;;;;;;;;5033640;28;20202;-61
2021/10/08 04:08:40;;;;;;;11.10;9.82;;;;;;;;;;5091750;27;20925;-62
2021/10/08 04:11:07;;;;;;;15.88;10.70;;;;;;;;;;5091341;28;20269;-61
2021/10/08 04:13:35;;;;;;;13.00;9.70;;;;;;;;;;5093959;28;20196;-61
2021/10/08 04:16:02;;;;;;;12.65;9.82;;;;;;;;;;5091178;28;20254;-61
2021/10/08 04:18:29;;;;;;;8.85;7.95;;;;;;;;;;5090977;28;20242;-61
2021/10/08 04:20:57;;;;;;;10.50;9.05;;;;;;;;;;5091325;28;20249;-60
2021/10/08 04:23:24;;;;;;;9.57;8.52;;;;;;;;;;5091160;28;20208;-60
2021/10/08 04:25:53;;;;;;;9.27;8.38;;;;;;;;;;5091059;28;20203;-60
2021/10/08 04:28:20;;;;;;;10.27;8.63;;;;;;;;;;5090860;28;20219;-60
2021/10/08 04:30:47;;;;;;;10.05;8.77;;;;;;;;;;5090782;28;20289;-61
2021/10/08 04:33:15;;;;;;;9.82;8.68;;;;;;;;;;5090396;28;20623;-61
2021/10/08 04:35:43;;;;;;;9.18;8.27;;;;;;;;;;5090765;28;20208;-61
2021/10/08 04:38:10;;;;;;;9.60;8.55;;;;;;;;;;5090714;28;20265;-61
2021/10/08 04:40:38;;;;;;;10.73;8.57;;;;;;;;;;5090343;28;20227;-61
2021/10/08 04:43:06;;;;;;;12.73;9.65;;;;;;;;;;5090469;28;20254;-61
2021/10/08 04:45:34;;;;;;;13.45;9.73;;;;;;;;;;5090864;28;20208;-60
2021/10/08 04:48:01;;;;;;;12.40;9.05;;;;;;;;;;5090265;28;20220;-59
2021/10/08 04:50:28;;;;;;;13.35;9.70;;;;;;;;;;5090709;28;20232;-60
2021/10/08 04:52:56;;;;;;;12.65;10.57;;;;;;;;;;5091303;28;20274;-60
2021/10/08 04:55:23;;;;;;;13.68;10.82;;;;;;;;;;5090282;28;20254;-61
2021/10/08 04:57:50;;;;;;;14.35;11.05;;;;;;;;;;5090374;28;20197;-61
2021/10/08 05:00:19;;;;;;;15.65;11.70;;;;;;;;;;5090575;28;20633;-60
2021/10/08 05:02:46;;;;;;;21.65;12.65;;;;;;;;;;5091018;28;20621;-60
2021/10/08 05:05:14;;;;;;;16.85;12.65;;;;;;;;;;5091090;28;20219;-60
2021/10/08 05:07:41;;;;;;;20.75;13.65;;;;;;;;;;5090363;28;20239;-60
2021/10/08 05:10:08;;;;;;;23.10;14.88;;;;;;;;;;5090762;28;20621;-60
2021/10/08 05:12:35;;;;;;;28.58;16.50;;;;;;;;;;5090527;28;20196;-60
2021/10/08 05:15:03;;;;;;;27.88;15.63;;;;;;;;;;5090465;28;20265;-61
2021/10/08 05:17:31;;;;;;;23.98;13.60;;;;;;;;;;5090339;28;20196;-61
2021/10/08 05:19:59;;;;;;;17.67;12.15;;;;;;;;;;5077202;28;20217;-60
2021/10/08 05:22:26;;;;;;;19.80;12.13;;;;;;;;;;5079657;28;20589;-61
2021/10/08 05:24:53;;;;;;;25.10;13.50;;;;;;;;;;5082351;28;20227;-60
2021/10/08 05:27:20;;;;;;;21.55;13.18;;;;;;;;;;5081346;28;20236;-60
2021/10/08 05:29:48;;;;;;;21.30;14.25;;;;;;;;;;5080095;28;20233;-59
2021/10/08 05:32:15;;;;;;;22.27;13.30;;;;;;;;;;5079669;28;20201;-60
2021/10/08 05:34:44;;;;;;;21.60;12.88;;;;;;;;;;5080392;28;20227;-60
2021/10/08 05:37:11;;;;;;;18.05;12.05;;;;;;;;;;5078329;28;20248;-61
2021/10/08 05:39:38;;;;;;;24.73;13.43;;;;;;;;;;5078052;28;20574;-61
2021/10/08 05:42:05;;;;;;;17.13;10.82;;;;;;;;;;5076760;28;20258;-60
2021/10/08 05:44:33;;;;;;;18.58;12.10;;;;;;;;;;5076888;28;20204;-61
2021/10/08 05:47:00;;;;;;;14.13;10.63;;;;;;;;;;5077752;28;20254;-61
2021/10/08 05:49:28;;;;;;;17.58;11.52;;;;;;;;;;5077249;28;20636;-61
2021/10/08 05:51:57;;;;;;;15.65;11.70;;;;;;;;;;5076661;28;20601;-60
2021/10/08 05:54:24;;;;;;;16.45;11.13;;;;;;;;;;5077006;28;20231;-61
2021/10/08 05:56:51;;;;;;;15.13;11.40;;;;;;;;;;5075885;28;20209;-60
2021/10/08 05:59:18;;;;;;;21.27;11.00;;;;;;;;;;5075795;28;20770;-61
2021/10/08 06:01:45;;;;;;;12.32;9.23;;;;;;;;;;5076016;28;20251;-61
2021/10/08 06:04:13;;;;;;;13.98;10.85;;;;;;;;;;5075266;28;20271;-61
2021/10/08 06:06:40;;;;;;;13.93;10.70;;;;;;;;;;5075848;28;20208;-61
2021/10/08 06:09:09;;;;;;;15.80;11.05;;;;;;;;;;5075682;28;20228;-60
2021/10/08 06:11:36;;;;;;;21.77;13.27;;;;;;;;;;5075330;28;20677;-61
2021/10/08 06:14:03;;;;;;;15.05;12.73;;;;;;;;;;5075790;28;20201;-61
2021/10/08 06:16:30;;;;;;;19.38;13.48;;;;;;;;;;5076259;28;20201;-62
2021/10/08 06:18:58;;;;;;;15.18;11.73;;;;;;;;;;5078999;28;20221;-60
2021/10/08 06:21:25;;;;;;;17.88;10.65;;;;;;;;;;5089810;28;20209;-59
2021/10/08 06:23:52;;;;;;;19.38;12.02;;;;;;;;;;5090368;28;20226;-60
2021/10/08 06:26:21;;;;;;;14.70;11.38;;;;;;;;;;5089741;28;20201;-61
2021/10/08 06:28:48;;;;;;;17.15;11.68;;;;;;;;;;5091376;28;20225;-61
2021/10/08 06:31:15;;;;;;;13.18;11.10;;;;;;;;;;5087958;28;20212;-61
2021/10/08 06:33:42;;;;;;;15.65;12.75;;;;;;;;;;5083155;28;20209;-60
2021/10/08 06:36:10;;;;;;;15.18;11.35;;;;;;;;;;5076177;28;20201;-60
2021/10/08 06:38:37;;;;;;;15.13;11.65;;;;;;;;;;5074832;28;20672;-60
2021/10/08 06:41:04;;;;;;;15.55;12.23;;;;;;;;;;5074903;28;20209;-63
2021/10/08 06:43:33;;;;;;;15.32;12.23;;;;;;;;;;5076421;28;20201;-60
2021/10/08 06:46:01;;;;;;;16.50;12.90;;;;;;;;;;5075741;28;20683;-60
2021/10/08 06:48:28;;;;;;;15.60;12.18;;;;;;;;;;5075249;28;20225;-60
2021/10/08 06:50:57;;;;;;;18.70;12.60;;;;;;;;;;5074866;28;20205;-60
2021/10/08 06:53:25;;;;;;;16.05;12.07;;;;;;;;;;5074556;28;20280;-61
2021/10/08 06:55:52;;;;;;;19.98;12.77;;;;;;;;;;5089955;22;20305;-57
2021/10/08 06:58:19;;;;;;;19.95;13.60;;;;;;;;;;5034354;28;20202;-57
2021/10/08 07:00:48;;;;;;;15.00;12.68;;;;;;;;;;5034240;28;20206;-57
2021/10/08 07:03:15;;;;;;;16.67;13.98;;;;;;;;;;5034002;28;20210;-57
2021/10/08 07:05:42;;;;;;;17.40;12.07;;;;;;;;;;5033560;28;20600;-57
2021/10/08 07:08:09;;;;;;;18.80;11.38;;;;;;;;;;5033563;28;20619;-57
2021/10/08 07:10:38;;;;;;;14.60;12.20;;;;;;;;;;5033667;28;20202;-57
2021/10/08 07:13:06;;;;;;;14.15;11.55;;;;;;;;;;5034056;28;20247;-56
2021/10/08 07:15:33;;;;;;;13.05;11.27;;;;;;;;;;5033754;28;20226;-57
2021/10/08 07:18:02;;;;;;;11.57;10.43;;;;;;;;;;5033574;28;20256;-56
2021/10/08 07:20:30;;;;;;;17.00;12.30;;;;;;;;;;5033563;28;20203;-57
2021/10/08 07:22:58;;;;;;;17.05;12.65;;;;;;;;;;5033565;28;20667;-56
2021/10/08 07:25:26;;;;;;;13.10;11.23;;;;;;;;;;5033871;28;20271;-56
2021/10/08 07:27:53;;;;;;;13.98;10.85;;;;;;;;;;5033880;28;20280;-56
2021/10/08 07:30:20;;;;;;;13.52;11.10;;;;;;;;;;5033816;28;20202;-56
2021/10/08 07:32:48;;;;;;;12.02;10.23;;;;;;;;;;5033607;28;20206;-57
2021/10/08 07:35:17;;;;;;;12.05;10.65;;;;;;;;;;5033412;28;20301;-56
2021/10/08 07:37:45;;;;;;;13.43;10.20;;;;;;;;;;5033251;28;20194;-57
2021/10/08 07:40:13;;;;;;;11.90;10.77;;;;;;;;;;5033552;28;20210;-56
2021/10/08 07:42:40;;;;;;;11.23;9.65;;;;;;;;;;5032922;28;20732;-56
2021/10/08 07:45:08;;;;;;;12.00;9.95;;;;;;;;;;5033224;28;20276;-56
2021/10/08 07:47:36;;;;;;;12.80;10.48;;;;;;;;;;5033201;28;20207;-56
2021/10/08 07:50:04;;;;;;;10.65;9.55;;;;;;;;;;5033299;28;20207;-57
2021/10/08 07:52:33;;;;;;;11.63;10.43;;;;;;;;;;5032984;28;20236;-56
2021/10/08 07:55:00;;;;;;;13.57;10.98;;;;;;;;;;5032779;28;20690;-56
2021/10/08 07:57:27;;;;;;;13.90;11.20;;;;;;;;;;5033059;28;20244;-56
2021/10/08 07:59:54;;;;;;;11.48;10.23;;;;;;;;;;5033281;28;20202;-56
2021/10/08 08:02:23;;;;;;;13.90;10.82;;;;;;;;;;5033143;28;20202;-55
2021/10/08 08:04:50;;;;;;;11.43;9.68;;;;;;;;;;5033091;28;20202;-57
2021/10/08 08:07:17;;;;;;;11.80;10.20;;;;;;;;;;5033098;28;20256;-57
2021/10/08 08:09:46;;;;;;;11.03;9.80;;;;;;;;;;5033015;28;20484;-57
2021/10/08 08:12:13;;;;;;;12.18;10.55;;;;;;;;;;5032582;28;20530;-57
2021/10/08 08:14:40;;;;;;;12.37;10.10;;;;;;;;;;5033236;28;20202;-57
2021/10/08 08:17:07;;;;;;;23.45;10.77;;;;;;;;;;5032721;28;20469;-56
2021/10/08 08:19:35;;;;;;;13.63;9.50;;;;;;;;;;5032495;28;20251;-56
2021/10/08 08:22:02;;;;;;;11.80;10.60;;;;;;;;;;5032257;28;20941;-56
2021/10/08 08:24:30;;;;;;;13.10;9.13;;;;;;;;;;5032403;28;20471;-57
2021/10/08 08:26:58;;;;;;;11.15;10.00;;;;;;;;;;5032392;28;21019;-58
2021/10/08 08:29:26;;;;;;;10.67;9.53;;;;;;;;;;5032719;28;20272;-56
2021/10/08 08:31:53;;;;;;;10.47;9.30;;;;;;;;;;5032422;28;20546;-56
2021/10/08 08:34:22;;;;;;;10.00;8.90;;;;;;;;;;5032381;28;20445;-55
2021/10/08 08:36:49;;;;;;;14.50;9.97;;;;;;;;;;5032642;28;20469;-57
2021/10/08 08:39:18;;;;;;;11.60;10.10;;;;;;;;;;5033288;28;20445;-56
2021/10/08 08:41:46;;;;;;;13.63;9.63;;;;;;;;;;5032838;28;20498;-56
2021/10/08 08:44:14;;;;;;;11.63;10.00;;;;;;;;;;5033137;28;20449;-56
2021/10/08 08:46:41;;;;;;;15.93;10.50;;;;;;;;;;5032866;28;21055;-57
2021/10/08 08:49:09;;;;;;;12.10;9.77;;;;;;;;;;5033138;28;20920;-56
2021/10/08 08:51:36;;;;;;;9.57;8.47;;;;;;;;;;5032696;28;20449;-57
2021/10/08 08:54:07;;;;;;;12.27;9.33;;;;;;;;;;5033983;28;20945;-57
2021/10/08 08:56:34;;;;;;;12.90;9.40;;;;;;;;;;5036046;28;20992;-57
2021/10/08 08:59:02;;;;;;;13.37;10.00;;;;;;;;;;5036129;28;20445;-57
2021/10/08 09:01:31;;;;;;;12.50;10.00;;;;;;;;;;5036000;28;20498;-57
2021/10/08 09:04:02;;;;;;;15.10;9.17;;;;;;;;;;5036428;28;20457;-56
2021/10/08 09:06:30;;;;;;;12.00;9.17;;;;;;;;;;5035855;28;20881;-57
2021/10/08 09:08:57;;;;;;;11.70;9.43;;;;;;;;;;5036916;28;20492;-57
2021/10/08 09:11:37;;;;;;;13.37;8.90;;;;;;;;;;5036162;28;20445;-57
2021/10/08 09:14:14;;;;;;;15.67;9.60;;;;;;;;;;5036110;28;20975;-57
2021/10/08 09:17:05;;;;;;;13.97;9.80;;;;;;;;;;5036023;28;20836;-56
2021/10/08 09:19:46;;;;;;;13.20;9.20;;;;;;;;;;5036117;28;20413;-57
2021/10/08 09:22:13;;;;;;;10.03;9.03;;;;;;;;;;5036156;28;20778;-57
2021/10/08 09:24:41;;;;;;;10.40;8.87;;;;;;;;;;5035578;28;20871;-56
2021/10/08 09:27:09;;;;;;;12.53;8.90;;;;;;;;;;5035335;28;20469;-56
2021/10/08 09:29:36;;;;;;;16.87;10.20;;;;;;;;;;5035680;28;20492;-56
2021/10/08 09:32:05;;;;;;;15.17;9.90;;;;;;;;;;5036048;28;20491;-56
2021/10/08 09:34:32;;;;;;;15.37;9.90;;;;;;;;;;5035636;28;20548;-56
2021/10/08 09:37:01;;;;;;;16.53;11.10;;;;;;;;;;5035451;28;20543;-56
2021/10/08 09:39:31;;;;;;;17.60;10.37;;;;;;;;;;5035747;28;20544;-57
2021/10/08 09:41:59;;;;;;;19.10;11.80;;;;;;;;;;5035202;28;20449;-56
2021/10/08 09:44:27;;;;;;;24.20;12.50;;;;;;;;;;5035304;28;20448;-57
2021/10/08 09:47:08;;;;;;;19.30;11.70;;;;;;;;;;5034889;28;20775;-57
2021/10/08 09:49:36;;;;;;;21.13;11.57;;;;;;;;;;5035131;28;20583;-57
2021/10/08 09:52:19;;;;;;;18.83;12.27;;;;;;;;;;5035050;28;20476;-57
2021/10/08 09:54:49;;;;;;;19.40;12.23;;;;;;;;;;5035112;28;20448;-57
2021/10/08 09:57:16;;;;;;;15.93;12.53;;;;;;;;;;5035291;28;20531;-56
2021/10/08 09:59:44;;;;;;;20.13;14.10;;;;;;;;;;5035401;28;20441;-57
2021/10/08 10:02:11;;;;;;;18.70;12.70;;;;;;;;;;5034812;28;20445;-57
2021/10/08 10:04:51;;;;;;;14.63;12.77;;;;;;;;;;5035074;28;20449;-57
2021/10/08 10:07:20;;;;;;;17.67;13.60;;;;;;;;;;5035037;28;20437;-56
2021/10/08 10:09:47;;;;;;;15.93;12.83;;;;;;;;;;5034903;28;20481;-56
2021/10/08 10:12:15;;;;;;;15.27;13.70;;;;;;;;;;5035369;28;20528;-57
2021/10/08 10:14:44;;;;;;;19.03;12.03;;;;;;;;;;5034849;28;20984;-57
2021/10/08 10:17:12;;;;;;;17.00;13.77;;;;;;;;;;5034943;28;20449;-57
2021/10/08 10:19:40;;;;;;;13.83;12.43;;;;;;;;;;5035590;28;20433;-56
2021/10/08 10:22:09;;;;;;;17.53;13.93;;;;;;;;;;5035115;28;20456;-56
2021/10/08 10:24:37;;;;;;;18.63;16.07;;;;;;;;;;5035590;28;20542;-58
2021/10/08 10:27:05;;;;;;;24.03;21.43;;;;;;;;;;5035860;28;20989;-56
2021/10/08 10:29:32;;;;;;;23.63;16.47;;;;;;;;;;5035410;28;20530;-56
2021/10/08 10:31:59;;;;;;;21.70;15.90;;;;;;;;;;5035802;28;20445;-57
2021/10/08 10:34:27;;;;;;;23.33;16.70;;;;;;;;;;5034981;28;20445;-56
2021/10/08 10:36:54;;;;;;;22.13;16.53;;;;;;;;;;5034942;28;20460;-56
2021/10/08 10:39:23;;;;;;;24.40;18.03;;;;;;;;;;5034851;28;20503;-55
2021/10/08 10:42:14;;;;;;;21.93;18.40;;;;;;;;;;5034592;28;20797;-55
2021/10/08 10:45:01;;;;;;;23.90;17.07;;;;;;;;;;5034261;28;20905;-56
2021/10/08 10:47:32;;;;;;;25.03;18.90;;;;;;;;;;5033797;28;20875;-56
2021/10/08 10:50:10;;;;;;;25.50;19.67;;;;;;;;;;5034850;28;20476;-55
2021/10/08 10:52:47;;;;;;;24.40;19.30;;;;;;;;;;5034428;28;20776;-55
2021/10/08 10:55:15;;;;;;;22.90;19.57;;;;;;;;;;5033739;28;20476;-57
2021/10/08 10:58:09;;;;;;;23.57;19.40;;;;;;;;;;5033912;28;20484;-56
2021/10/08 11:00:45;;;;;;;24.57;20.57;;;;;;;;;;5034463;28;20836;-56
2021/10/08 11:03:15;;;;;;;23.70;19.57;;;;;;;;;;5034463;28;20471;-56
2021/10/08 11:06:03;;;;;;;25.43;21.40;;;;;;;;;;5035269;28;20531;-54
2021/10/08 11:08:30;;;;;;;24.77;21.00;;;;;;;;;;5034489;28;20499;-55
2021/10/08 11:11:17;;;;;;;26.20;21.83;;;;;;;;;;5034087;28;20868;-56
2021/10/08 11:13:45;;;;;;;26.80;20.77;;;;;;;;;;5034068;28;20499;-54
2021/10/08 11:16:14;;;;;;;26.63;20.60;;;;;;;;;;5033385;28;20879;-55
2021/10/08 11:18:47;;;;;;;23.47;20.97;;;;;;;;;;5033804;28;20855;-55
2021/10/08 11:21:35;;;;;;;23.20;20.57;;;;;;;;;;5033858;28;20496;-56
2021/10/08 11:24:03;;;;;;;25.70;21.70;;;;;;;;;;5033305;28;20528;-56
2021/10/08 11:26:30;;;;;;;24.20;21.53;;;;;;;;;;5033673;28;20481;-55
2021/10/08 11:29:00;;;;;;;23.30;19.93;;;;;;;;;;5033275;28;20488;-55
2021/10/08 11:31:27;;;;;;;27.67;20.87;;;;;;;;;;5033209;28;20540;-55
2021/10/08 11:33:56;;;;;;;23.53;20.50;;;;;;;;;;5034031;28;20452;-55
2021/10/08 11:36:25;;;;;;;24.70;18.90;;;;;;;;;;5033092;28;20983;-57
2021/10/08 11:39:08;;;;;;;22.47;19.17;;;;;;;;;;5033060;28;20968;-56
2021/10/08 11:41:35;;;;;;;23.80;19.40;;;;;;;;;;5033113;28;20904;-54
2021/10/08 11:44:10;;;;;;;23.87;20.60;;;;;;;;;;5033368;28;20454;-56
2021/10/08 11:46:50;;;;;;;21.10;18.40;;;;;;;;;;5034105;28;20481;-55
2021/10/08 11:49:40;;;;;;;22.13;19.80;;;;;;;;;;5033266;28;20581;-56
2021/10/08 11:52:08;;;;;;;27.33;18.60;;;;;;;;;;5033158;28;20448;-56
2021/10/08 11:54:35;;;;;;;20.30;18.10;;;;;;;;;;5033241;28;20451;-55
2021/10/08 11:57:04;;;;;;;20.77;18.53;;;;;;;;;;5032911;28;20479;-55
2021/10/08 11:59:31;;;;;;;21.17;16.90;;;;;;;;;;5033916;28;20453;-56
2021/10/08 12:02:12;;;;;;;21.53;19.10;;;;;;;;;;5033294;28;20445;-56
2021/10/08 12:04:41;;;;;;;21.37;19.10;;;;;;;;;;5032733;28;20478;-57
2021/10/08 12:07:10;;;;;;;22.67;18.30;;;;;;;;;;5033014;28;20522;-57
2021/10/08 12:09:37;;;;;;;19.40;17.30;;;;;;;;;;5032639;28;20952;-56
2021/10/08 12:12:11;;;;;;;23.00;18.83;;;;;;;;;;5032830;28;20497;-57
2021/10/08 12:14:48;;;;;;;19.27;17.23;;;;;;;;;;5032656;28;20478;-55
2021/10/08 12:17:16;;;;;;;22.87;18.87;;;;;;;;;;5032986;28;20434;-56
2021/10/08 12:19:44;;;;;;;24.73;19.13;;;;;;;;;;5032925;28;20452;-54
2021/10/08 12:22:22;;;;;;;21.07;17.73;;;;;;;;;;5033022;28;20452;-56
2021/10/08 12:24:50;;;;;;;19.23;16.97;;;;;;;;;;5032648;28;20468;-55
2021/10/08 12:27:17;;;;;;;19.10;17.07;;;;;;;;;;5032544;28;20475;-55
2021/10/08 12:29:45;;;;;;;18.63;16.83;;;;;;;;;;5035446;28;20483;-55
2021/10/08 12:32:14;;;;;;;19.13;17.23;;;;;;;;;;5037250;28;20794;-55
2021/10/08 12:34:42;;;;;;;18.80;16.80;;;;;;;;;;5036998;28;20507;-55
2021/10/08 12:37:11;;;;;;;19.07;16.97;;;;;;;;;;5036300;28;20990;-55
2021/10/08 12:39:40;;;;;;;19.43;17.23;;;;;;;;;;5036147;28;20797;-54
2021/10/08 12:42:15;;;;;;;21.87;18.40;;;;;;;;;;5036539;28;20546;-54
2021/10/08 12:44:53;;;;;;;17.73;15.90;;;;;;;;;;5036699;28;20451;-54
2021/10/08 12:47:25;;;;;;;19.23;17.07;;;;;;;;;;5036221;28;20511;-54
2021/10/08 12:49:53;;;;;;;19.83;17.00;;;;;;;;;;5035918;28;21055;-54
2021/10/08 12:52:34;;;;;;;16.63;14.93;;;;;;;;;;5036041;28;20498;-54
2021/10/08 12:55:05;;;;;;;18.27;16.40;;;;;;;;;;5036121;28;20451;-53
2021/10/08 12:57:33;;;;;;;16.50;14.67;;;;;;;;;;5051626;22;20492;-59
2021/10/08 13:00:00;;;;;;;16.90;14.83;;;;;;;;;;5036176;28;20436;-59
2021/10/08 13:02:42;;;;;;;21.37;17.30;;;;;;;;;;5036310;28;20516;-58
2021/10/08 13:05:10;;;;;;;17.77;14.53;;;;;;;;;;5036035;28;20421;-59
2021/10/08 13:07:38;;;;;;;18.80;16.37;;;;;;;;;;5036008;28;20523;-59
2021/10/08 13:10:09;;;;;;;18.53;16.57;;;;;;;;;;5035854;28;20481;-59
2021/10/08 13:12:44;;;;;;;17.07;15.27;;;;;;;;;;5035750;28;20450;-59
2021/10/08 13:15:12;;;;;;;20.90;16.23;;;;;;;;;;5035386;28;20450;-59
2021/10/08 13:17:39;;;;;;;18.87;16.87;;;;;;;;;;5035861;28;20473;-59
2021/10/08 13:20:08;;;;;;;18.00;14.80;;;;;;;;;;5035966;28;20447;-57
2021/10/08 13:22:35;;;;;;;18.10;16.30;;;;;;;;;;5035402;28;20481;-59
2021/10/08 13:25:04;;;;;;;16.67;14.97;;;;;;;;;;5035385;28;20504;-59
2021/10/08 13:27:32;;;;;;;17.60;13.80;;;;;;;;;;5035426;28;20523;-59
2021/10/08 13:30:00;;;;;;;18.27;14.97;;;;;;;;;;5035174;28;20480;-59
2021/10/08 13:32:27;;;;;;;18.27;15.50;;;;;;;;;;5035797;28;20556;-59
2021/10/08 13:34:54;;;;;;;16.80;14.20;;;;;;;;;;5035837;28;20833;-59
2021/10/08 13:37:22;;;;;;;16.00;12.70;;;;;;;;;;5035501;28;20521;-58
2021/10/08 13:39:49;;;;;;;16.13;13.60;;;;;;;;;;5035413;28;20437;-58
2021/10/08 13:42:18;;;;;;;15.83;13.40;;;;;;;;;;5035688;28;20526;-57
2021/10/08 13:44:46;;;;;;;14.90;13.40;;;;;;;;;;5035463;28;20477;-59
2021/10/08 13:47:13;;;;;;;16.23;13.70;;;;;;;;;;5035636;28;20496;-57
2021/10/08 13:49:40;;;;;;;15.60;13.33;;;;;;;;;;5035346;28;20916;-60
2021/10/08 13:52:09;;;;;;;13.67;12.13;;;;;;;;;;5037690;28;20459;-58
2021/10/08 13:54:37;;;;;;;12.30;11.10;;;;;;;;;;5039742;28;20536;-58
2021/10/08 13:57:04;;;;;;;14.37;11.17;;;;;;;;;;5040619;28;20484;-58
2021/10/08 13:59:33;;;;;;;12.00;10.77;;;;;;;;;;5039672;28;20500;-59
2021/10/08 14:02:04;;;;;;;11.80;10.60;;;;;;;;;;5039944;28;20938;-59
2021/10/08 14:04:37;;;;;;;15.17;11.80;;;;;;;;;;5036561;28;20854;-59
2021/10/08 14:10:17;;;;;;;11.83;10.63;;;;;;;;;;5036417;28;20496;-59
2021/10/08 14:12:44;;;;;;;12.37;10.10;;;;;;;;;;5036796;28;20441;-56
2021/10/08 14:15:14;;;;;;;14.00;11.40;;;;;;;;;;5035743;28;20509;-60
2021/10/08 14:17:41;;;;;;;11.57;10.53;;;;;;;;;;5035573;28;20521;-58
2021/10/08 14:20:09;;;;;;;12.43;10.00;;;;;;;;;;5035403;28;20498;-58
2021/10/08 14:22:36;;;;;;;11.60;10.37;;;;;;;;;;5035673;28;20490;-59
2021/10/08 14:25:04;;;;;;;10.53;9.50;;;;;;;;;;5035310;28;20447;-58
2021/10/08 14:27:33;;;;;;;11.23;10.00;;;;;;;;;;5035547;28;20519;-58
2021/10/08 14:30:00;;;;;;;14.50;9.07;;;;;;;;;;5035430;28;20489;-59
2021/10/08 14:32:29;;;;;;;10.30;9.20;;;;;;;;;;5035117;28;20499;-58
2021/10/08 14:34:56;;;;;;;16.47;9.60;;;;;;;;;;5035240;28;20447;-59
2021/10/08 14:37:23;;;;;;;14.37;9.60;;;;;;;;;;5035063;28;20983;-59
2021/10/08 14:39:51;;;;;;;9.37;8.23;;;;;;;;;;5034713;28;20447;-60